Time;durP1;ratioP1;P1;durP2;ratioP2;P2;SDS_P1;SDS_P2;PMS_P1;PMS_P2;Temp;Humidity;BMP_temperature;BMP_pressure;BME280_temperature;BME280_humidity;BME280_pressure;Samples;Min_cycle;Max_cycle;Signal;HPM_P1;HPM_P2
2022/12/20 00:02:24;;;;;;;21.15;11.52;;;4.90;97.90;;;;;;5007552;28;20390;-66
2022/12/20 00:04:49;;;;;;;21.15;10.93;;;5.00;97.80;;;;;;5008339;28;20046;-66
2022/12/20 00:07:15;;;;;;;18.67;10.95;;;5.00;97.60;;;;;;5010529;28;20030;-66
2022/12/20 00:09:40;;;;;;;19.67;11.27;;;5.00;97.70;;;;;;5010847;28;20026;-66
2022/12/20 00:12:06;;;;;;;21.23;11.20;;;4.90;97.50;;;;;;4998524;28;20026;-66
2022/12/20 00:14:31;;;;;;;17.40;10.93;;;5.00;97.70;;;;;;5009998;28;20420;-66
2022/12/20 00:16:57;;;;;;;21.55;11.85;;;5.00;97.70;;;;;;5011172;28;20108;-68
2022/12/20 00:19:22;;;;;;;20.98;11.63;;;5.00;97.80;;;;;;5007230;28;20045;-66
2022/12/20 00:21:47;;;;;;;21.50;10.75;;;5.10;97.70;;;;;;5008928;28;20458;-66
2022/12/20 00:24:13;;;;;;;20.10;11.32;;;5.10;97.70;;;;;;5009551;28;20041;-67
2022/12/20 00:26:38;;;;;;;22.42;11.23;;;5.10;97.70;;;;;;5009622;28;20105;-66
2022/12/20 00:29:05;;;;;;;18.80;11.60;;;5.10;97.50;;;;;;5009254;28;20047;-66
2022/12/20 00:31:31;;;;;;;19.33;11.90;;;5.10;97.50;;;;;;5010018;28;20048;-66
2022/12/20 00:33:58;;;;;;;17.42;10.85;;;5.10;97.60;;;;;;5005440;28;20026;-66
2022/12/20 00:36:26;;;;;;;18.75;10.27;;;5.10;97.60;;;;;;5009144;28;20030;-68
2022/12/20 00:38:52;;;;;;;19.52;11.30;;;5.10;97.70;;;;;;5006515;28;20117;-66
2022/12/20 00:41:20;;;;;;;18.38;11.07;;;5.10;97.60;;;;;;5003263;28;20028;-66
2022/12/20 00:43:47;;;;;;;17.88;10.25;;;5.20;97.60;;;;;;5007661;28;20057;-66
2022/12/20 00:46:15;;;;;;;19.23;10.95;;;5.20;97.70;;;;;;5006597;28;20032;-66
2022/12/20 00:48:41;;;;;;;16.92;10.20;;;5.20;97.60;;;;;;5012197;28;20125;-66
2022/12/20 00:51:09;;;;;;;15.30;10.00;;;5.30;97.70;;;;;;5011414;28;20110;-66
2022/12/20 00:53:35;;;;;;;18.13;10.60;;;5.30;97.80;;;;;;5008938;28;20488;-66
2022/12/20 00:56:02;;;;;;;16.67;10.45;;;5.50;97.60;;;;;;5013481;28;20449;-68
2022/12/20 00:58:27;;;;;;;15.70;10.07;;;5.60;97.30;;;;;;5013716;28;20040;-66
2022/12/20 01:00:54;;;;;;;16.30;10.25;;;5.60;97.40;;;;;;5015101;28;20108;-71
2022/12/20 01:03:20;;;;;;;17.13;10.02;;;5.60;97.30;;;;;;5012771;28;20356;-68
2022/12/20 01:05:54;;;;;;;17.50;9.57;;;5.70;97.40;;;;;;5010321;28;20044;-67
2022/12/20 01:08:20;;;;;;;15.15;10.00;;;5.70;97.40;;;;;;5011723;28;20125;-66
2022/12/20 01:10:46;;;;;;;15.02;9.60;;;5.80;97.40;;;;;;5013877;28;20410;-66
2022/12/20 01:13:12;;;;;;;16.17;9.40;;;5.80;97.10;;;;;;5012125;28;20033;-66
2022/12/20 01:15:37;;;;;;;14.32;9.05;;;5.70;97.20;;;;;;5014754;28;20084;-67
2022/12/20 01:18:03;;;;;;;18.38;9.77;;;5.80;97.10;;;;;;5013251;28;20048;-67
2022/12/20 01:20:28;;;;;;;18.35;9.48;;;5.80;97.10;;;;;;5009480;28;20033;-69
2022/12/20 01:22:54;;;;;;;14.77;9.40;;;5.90;97.20;;;;;;5009658;28;20084;-66
2022/12/20 01:25:19;;;;;;;15.63;9.18;;;5.90;97.30;;;;;;5013242;28;20039;-67
2022/12/20 01:27:45;;;;;;;18.10;10.20;;;6.00;97.30;;;;;;5013890;28;20038;-66
2022/12/20 01:30:11;;;;;;;14.63;8.77;;;6.10;97.00;;;;;;5014137;28;20061;-66
2022/12/20 01:32:36;;;;;;;15.20;9.13;;;6.10;97.00;;;;;;5012840;28;20034;-66
2022/12/20 01:35:02;;;;;;;14.85;8.70;;;6.10;97.10;;;;;;5008965;28;20057;-66
2022/12/20 01:37:28;;;;;;;14.80;8.45;;;6.10;97.10;;;;;;5013925;28;20076;-67
2022/12/20 01:39:53;;;;;;;15.52;8.55;;;6.10;97.00;;;;;;5011095;28;20482;-66
2022/12/20 01:42:19;;;;;;;15.13;8.20;;;6.10;97.10;;;;;;5013982;28;20366;-67
2022/12/20 01:44:45;;;;;;;15.00;9.27;;;6.20;97.10;;;;;;5011653;28;20034;-66
2022/12/20 01:47:11;;;;;;;16.48;9.02;;;6.10;97.20;;;;;;5013512;28;20034;-66
2022/12/20 01:49:47;;;;;;;16.50;8.80;;;6.20;97.10;;;;;;5009922;28;20030;-66
2022/12/20 01:52:24;;;;;;;15.48;8.95;;;6.20;97.00;;;;;;5007220;28;20038;-66
2022/12/20 01:55:00;;;;;;;16.95;9.45;;;6.20;97.00;;;;;;5008597;28;20109;-67
2022/12/20 01:57:44;;;;;;;16.73;8.68;;;6.20;97.00;;;;;;5009823;28;20033;-66
2022/12/20 02:00:11;;;;;;;15.80;8.85;;;6.20;97.00;;;;;;5011587;28;20033;-66
2022/12/20 02:02:37;;;;;;;15.57;9.18;;;6.30;96.90;;;;;;5010739;28;20049;-66
2022/12/20 02:05:03;;;;;;;14.80;9.13;;;6.30;97.00;;;;;;5011270;28;20267;-71
2022/12/20 02:07:32;;;;;;;16.15;8.50;;;6.30;97.10;;;;;;5011181;28;20425;-66
2022/12/20 02:09:59;;;;;;;15.07;8.05;;;6.30;96.90;;;;;;5011604;28;20379;-66
2022/12/20 02:12:37;;;;;;;15.38;8.60;;;6.30;97.10;;;;;;5008931;28;20033;-66
2022/12/20 02:15:21;;;;;;;13.80;8.60;;;6.40;96.90;;;;;;5012837;28;20136;-70
2022/12/20 02:17:49;;;;;;;13.90;8.43;;;6.30;97.00;;;;;;5013096;28;20026;-67
2022/12/20 02:20:59;;;;;;;18.98;9.45;;;6.50;97.10;;;;;;5005748;28;20030;-66
2022/12/20 02:24:08;;;;;;;14.60;8.25;;;6.50;96.70;;;;;;4987930;28;20065;-67
2022/12/20 02:26:58;;;;;;;13.93;8.63;;;6.50;96.90;;;;;;4999720;28;20042;-66
2022/12/20 02:29:39;;;;;;;14.32;8.93;;;6.60;96.80;;;;;;5012058;28;20173;-67
2022/12/20 02:32:11;;;;;;;12.65;7.80;;;6.60;97.10;;;;;;5011488;28;20532;-66
2022/12/20 02:34:40;;;;;;;16.60;8.52;;;6.70;96.90;;;;;;5005476;28;20034;-66
2022/12/20 02:37:05;;;;;;;15.50;9.00;;;6.70;96.80;;;;;;5005661;28;20030;-68
2022/12/20 02:39:33;;;;;;;13.90;8.20;;;6.70;96.70;;;;;;5011548;28;20032;-66
2022/12/20 02:42:28;;;;;;;13.45;8.43;;;6.80;96.80;;;;;;5011603;28;20493;-66
2022/12/20 02:45:18;;;;;;;15.02;8.73;;;6.80;96.60;;;;;;5001431;28;20367;-67
2022/12/20 02:47:47;;;;;;;16.90;8.43;;;6.70;96.80;;;;;;5012471;28;20037;-67
2022/12/20 02:50:17;;;;;;;15.77;8.43;;;6.80;97.00;;;;;;5009703;28;20062;-66
2022/12/20 02:52:43;;;;;;;14.27;8.43;;;6.80;97.10;;;;;;5006246;28;20034;-67
2022/12/20 02:55:09;;;;;;;11.93;7.97;;;6.80;96.90;;;;;;5012502;28;20037;-66
2022/12/20 02:58:05;;;;;;;12.10;7.55;;;6.80;97.10;;;;;;5012382;28;20052;-66
2022/12/20 03:00:42;;;;;;;13.48;8.10;;;6.90;96.90;;;;;;5014378;28;20030;-66
2022/12/20 03:03:23;;;;;;;16.85;8.75;;;6.90;97.10;;;;;;5010388;28;20395;-67
2022/12/20 03:05:54;;;;;;;16.13;8.35;;;6.90;97.00;;;;;;5007046;28;20034;-66
2022/12/20 03:08:21;;;;;;;14.60;8.07;;;6.90;96.90;;;;;;5011433;28;20045;-67
2022/12/20 03:10:47;;;;;;;11.77;8.40;;;6.90;96.90;;;;;;5018529;28;20044;-66
2022/12/20 03:15:57;;;;;;;14.68;8.02;;;6.90;96.70;;;;;;5001662;28;20040;-68
2022/12/20 03:18:23;;;;;;;13.10;8.50;;;7.00;96.90;;;;;;5010248;28;20112;-68
2022/12/20 03:20:48;;;;;;;13.70;8.75;;;7.00;96.90;;;;;;5007523;28;20033;-67
2022/12/20 03:23:14;;;;;;;13.15;7.43;;;7.00;96.90;;;;;;5012562;28;20034;-66
2022/12/20 03:25:39;;;;;;;16.30;8.30;;;6.90;97.10;;;;;;5007834;28;20486;-67
2022/12/20 03:28:05;;;;;;;14.05;7.20;;;7.00;97.00;;;;;;5008159;28;20042;-66
2022/12/20 03:30:30;;;;;;;16.88;8.15;;;7.00;97.20;;;;;;5016471;28;20104;-68
2022/12/20 03:32:56;;;;;;;13.95;8.13;;;7.10;96.90;;;;;;5014321;28;20040;-66
2022/12/20 03:35:21;;;;;;;14.95;8.60;;;7.10;97.00;;;;;;5006963;28;20149;-67
2022/12/20 03:37:47;;;;;;;14.02;8.07;;;7.00;97.00;;;;;;5008215;28;20510;-66
2022/12/20 03:40:12;;;;;;;15.15;7.90;;;7.00;97.30;;;;;;5010122;28;20038;-67
2022/12/20 03:42:38;;;;;;;14.30;8.32;;;6.90;97.30;;;;;;5003940;28;20038;-66
2022/12/20 03:45:04;;;;;;;16.75;8.63;;;7.10;97.20;;;;;;4997492;28;20034;-67
2022/12/20 03:47:29;;;;;;;15.25;8.25;;;7.10;97.20;;;;;;5010745;28;20520;-67
2022/12/20 03:49:55;;;;;;;13.50;8.25;;;7.00;96.90;;;;;;5005432;28;20030;-67
2022/12/20 03:52:21;;;;;;;14.02;8.23;;;7.00;97.30;;;;;;5008686;28;20034;-66
2022/12/20 03:54:47;;;;;;;14.77;8.13;;;7.00;97.10;;;;;;5008779;28;20397;-67
2022/12/20 03:57:12;;;;;;;10.68;7.25;;;7.00;97.10;;;;;;5009730;28;20061;-66
2022/12/20 03:59:38;;;;;;;14.27;8.75;;;7.00;97.10;;;;;;5004841;28;20041;-66
2022/12/20 04:02:03;;;;;;;16.25;8.45;;;7.00;97.20;;;;;;5009385;28;20425;-70
2022/12/20 04:04:29;;;;;;;14.82;8.65;;;7.00;97.00;;;;;;5007270;28;20030;-66
2022/12/20 04:06:54;;;;;;;14.23;8.18;;;6.90;97.20;;;;;;5010368;28;20113;-67
2022/12/20 04:09:20;;;;;;;12.98;8.05;;;7.00;97.10;;;;;;5005963;28;20059;-68
2022/12/20 04:11:45;;;;;;;14.38;8.05;;;7.10;97.00;;;;;;5011524;28;20033;-67
2022/12/20 04:14:11;;;;;;;14.38;8.82;;;7.00;96.80;;;;;;5005868;28;20030;-66
2022/12/20 04:16:36;;;;;;;16.77;8.45;;;7.10;97.20;;;;;;5011801;28;20044;-67
2022/12/20 04:19:02;;;;;;;14.07;8.30;;;7.10;97.00;;;;;;5006745;28;20038;-70
2022/12/20 04:21:30;;;;;;;16.20;8.15;;;7.10;97.00;;;;;;5010876;28;20104;-66
2022/12/20 04:23:57;;;;;;;14.15;8.27;;;7.10;97.30;;;;;;5012291;28;20041;-67
2022/12/20 04:26:23;;;;;;;15.93;8.70;;;7.10;97.10;;;;;;5014300;28;20033;-66
2022/12/20 04:28:48;;;;;;;14.02;8.13;;;7.10;96.90;;;;;;5013977;28;20038;-67
2022/12/20 04:31:14;;;;;;;14.05;8.65;;;7.10;97.10;;;;;;5011787;28;20510;-71
2022/12/20 04:33:39;;;;;;;14.98;7.85;;;7.10;97.20;;;;;;5014275;28;20041;-66
2022/12/20 04:36:06;;;;;;;15.00;7.85;;;7.20;97.10;;;;;;5011945;28;20359;-67
2022/12/20 04:38:32;;;;;;;11.85;7.90;;;7.30;97.10;;;;;;5018354;28;20030;-66
2022/12/20 04:40:57;;;;;;;14.57;7.95;;;7.30;97.10;;;;;;5012883;28;20080;-66
2022/12/20 04:43:23;;;;;;;14.30;8.10;;;7.40;96.90;;;;;;5017836;28;20058;-68
2022/12/20 04:45:55;;;;;;;13.02;8.15;;;7.30;96.70;;;;;;5009186;28;20030;-67
2022/12/20 04:48:23;;;;;;;13.57;8.15;;;7.40;96.80;;;;;;5014779;28;20480;-66
2022/12/20 04:50:50;;;;;;;17.13;8.05;;;7.40;96.70;;;;;;5012881;28;20117;-67
2022/12/20 04:53:58;;;;;;;15.68;8.35;;;7.30;97.00;;;;;;5023246;28;20108;-66
2022/12/20 04:56:05;;;;;;;13.38;8.07;;;7.30;97.20;;;;;;5004433;28;20427;-67
2022/12/20 04:58:30;;;;;;;15.80;7.78;;;7.20;97.60;;;;;;5008004;28;20554;-67
2022/12/20 05:00:56;;;;;;;14.93;8.23;;;7.20;97.60;;;;;;5008029;28;20105;-66
2022/12/20 05:03:23;;;;;;;15.43;8.73;;;7.20;97.90;;;;;;5009492;28;20054;-69
2022/12/20 05:05:49;;;;;;;14.50;7.85;;;7.20;97.80;;;;;;5012777;28;20393;-66
2022/12/20 05:08:14;;;;;;;15.35;8.80;;;7.20;97.90;;;;;;5013900;28;20125;-66
2022/12/20 05:10:41;;;;;;;17.15;8.57;;;7.20;97.60;;;;;;5013998;28;20471;-67
2022/12/20 05:13:08;;;;;;;16.23;8.80;;;7.20;97.90;;;;;;5015478;28;20393;-66
2022/12/20 05:15:33;;;;;;;16.45;9.63;;;7.20;98.10;;;;;;5016713;28;20099;-66
2022/12/20 05:17:59;;;;;;;17.10;9.27;;;7.20;98.00;;;;;;5001783;28;20439;-66
2022/12/20 05:20:31;;;;;;;16.58;9.65;;;7.20;98.10;;;;;;5008346;28;20042;-66
2022/12/20 05:28:31;;;;;;;14.57;7.97;;;7.10;98.60;;;;;;5017503;28;20038;-68
2022/12/20 05:30:57;;;;;;;16.27;8.57;;;7.20;98.90;;;;;;5024177;28;20037;-66
2022/12/20 05:33:23;;;;;;;16.20;10.20;;;7.20;99.30;;;;;;5012686;28;20049;-68
2022/12/20 05:35:48;;;;;;;16.33;8.68;;;7.10;99.20;;;;;;5022030;28;20038;-69
2022/12/20 05:38:14;;;;;;;18.17;9.98;;;7.10;99.40;;;;;;5021480;28;20033;-69
2022/12/20 05:40:40;;;;;;;15.65;9.57;;;7.20;99.60;;;;;;5015048;28;20061;-69
2022/12/20 05:43:06;;;;;;;18.48;9.82;;;7.30;99.90;;;;;;5026834;28;20058;-69
2022/12/20 05:45:32;;;;;;;16.23;9.82;;;7.20;99.90;;;;;;5023329;28;20025;-69
2022/12/20 05:47:58;;;;;;;15.95;9.80;;;7.30;99.90;;;;;;5014106;28;20034;-69
2022/12/20 05:50:24;;;;;;;18.17;10.52;;;7.20;99.90;;;;;;5008953;28;20364;-70
2022/12/20 05:52:49;;;;;;;18.63;10.40;;;7.20;99.90;;;;;;5003828;28;20030;-69
2022/12/20 05:55:15;;;;;;;18.52;10.27;;;7.20;99.90;;;;;;5012724;28;20041;-71
2022/12/20 05:57:41;;;;;;;21.15;10.88;;;7.20;99.90;;;;;;5008391;28;20493;-71
2022/12/20 06:00:11;;;;;;;17.90;10.15;;;7.30;99.90;;;;;;5004403;28;20065;-71
2022/12/20 06:02:36;;;;;;;21.07;10.23;;;7.30;99.90;;;;;;5005646;28;20121;-71
2022/12/20 06:05:02;;;;;;;20.15;10.93;;;7.30;99.90;;;;;;5010858;28;20132;-71
2022/12/20 06:07:28;;;;;;;18.48;10.88;;;7.30;99.90;;;;;;5010490;28;20042;-69
2022/12/20 06:09:54;;;;;;;22.85;10.65;;;7.40;99.90;;;;;;5009413;28;20033;-70
2022/12/20 06:12:20;;;;;;;20.17;10.70;;;7.30;99.90;;;;;;5010978;28;20037;-69
2022/12/20 06:14:45;;;;;;;18.70;10.35;;;7.30;99.90;;;;;;5011760;28;20474;-68
2022/12/20 06:17:11;;;;;;;20.67;11.07;;;7.30;99.90;;;;;;5009548;28;20061;-69
2022/12/20 06:19:38;;;;;;;21.67;10.80;;;7.30;99.90;;;;;;5010979;28;20113;-69
2022/12/20 06:22:04;;;;;;;18.35;10.73;;;7.30;99.90;;;;;;5010469;28;20112;-69
2022/12/20 06:24:29;;;;;;;18.73;11.02;;;7.30;99.90;;;;;;5010119;28;20128;-69
2022/12/20 06:26:55;;;;;;;21.10;11.38;;;7.30;99.90;;;;;;5009266;28;20100;-68
2022/12/20 06:29:23;;;;;;;21.23;11.32;;;7.30;99.90;;;;;;5012778;28;20040;-69
2022/12/20 06:31:49;;;;;;;21.30;10.65;;;7.30;99.90;;;;;;5011556;28;20124;-69
2022/12/20 06:34:14;;;;;;;20.45;10.80;;;7.30;99.90;;;;;;5006919;28;20105;-69
2022/12/20 06:36:40;;;;;;;23.23;11.98;;;7.30;99.90;;;;;;5009271;28;20081;-70
2022/12/20 06:39:08;;;;;;;20.77;11.40;;;7.30;99.90;;;;;;5012111;28;20050;-70
2022/12/20 06:41:33;;;;;;;20.65;11.02;;;7.30;99.90;;;;;;5011524;28;20105;-69
2022/12/20 06:43:59;;;;;;;22.88;11.60;;;7.30;99.90;;;;;;5012337;28;20053;-70
2022/12/20 06:46:24;;;;;;;18.90;10.98;;;7.30;99.90;;;;;;5008135;28;20033;-69
2022/12/20 06:48:50;;;;;;;24.88;12.45;;;7.30;99.90;;;;;;5006144;28;20546;-69
2022/12/20 06:51:16;;;;;;;20.35;11.80;;;7.30;99.90;;;;;;5010744;28;20543;-69
2022/12/20 06:53:41;;;;;;;23.02;12.43;;;7.30;99.90;;;;;;5012664;28;20041;-69
2022/12/20 06:56:07;;;;;;;21.25;11.90;;;7.30;99.90;;;;;;5011920;28;20477;-69
2022/12/20 06:58:32;;;;;;;20.80;12.48;;;7.30;99.90;;;;;;5013006;28;20050;-69
2022/12/20 07:00:58;;;;;;;22.02;12.38;;;7.30;99.90;;;;;;5011520;28;20192;-69
2022/12/20 07:03:23;;;;;;;21.15;11.25;;;7.30;99.90;;;;;;5010631;28;20026;-70
2022/12/20 07:05:53;;;;;;;20.60;11.80;;;7.30;99.90;;;;;;5006348;28;20033;-69
2022/12/20 07:08:19;;;;;;;22.75;12.48;;;7.30;99.90;;;;;;5013199;28;20034;-69
2022/12/20 07:10:45;;;;;;;20.75;11.35;;;7.40;99.90;;;;;;5009227;28;20026;-69
2022/12/20 07:13:10;;;;;;;22.10;11.30;;;7.40;99.90;;;;;;5013173;28;20486;-69
2022/12/20 07:15:36;;;;;;;22.15;12.48;;;7.30;99.90;;;;;;5010123;28;20042;-69
2022/12/20 07:18:05;;;;;;;23.83;12.05;;;7.30;99.90;;;;;;5019667;28;20083;-69
2022/12/20 07:20:31;;;;;;;21.75;12.77;;;7.30;99.90;;;;;;5014759;28;20033;-69
2022/12/20 07:22:56;;;;;;;21.92;12.25;;;7.40;99.90;;;;;;5013036;28;20033;-70
2022/12/20 07:25:22;;;;;;;25.90;12.95;;;7.30;99.90;;;;;;5018768;28;20049;-69
2022/12/20 07:27:51;;;;;;;21.50;11.40;;;7.40;99.90;;;;;;5010882;28;20129;-69
2022/12/20 07:30:18;;;;;;;23.00;12.70;;;7.30;99.90;;;;;;5012089;28;20466;-69
2022/12/20 07:32:44;;;;;;;25.75;12.43;;;7.30;99.90;;;;;;5010889;28;20037;-69
2022/12/20 07:35:11;;;;;;;21.50;13.32;;;7.40;99.90;;;;;;5003201;28;20091;-69
2022/12/20 07:37:36;;;;;;;23.92;12.75;;;7.40;99.90;;;;;;5011806;28;20046;-69
2022/12/20 07:40:03;;;;;;;20.52;12.32;;;7.40;99.90;;;;;;5011531;28;20374;-69
2022/12/20 07:42:28;;;;;;;24.60;12.60;;;7.40;99.90;;;;;;5000244;28;20054;-69
2022/12/20 07:44:54;;;;;;;28.45;13.85;;;7.30;99.90;;;;;;5001153;28;20042;-70
2022/12/20 07:47:19;;;;;;;28.08;13.52;;;7.30;99.90;;;;;;5012785;28;20033;-69
2022/12/20 07:49:45;;;;;;;22.55;13.30;;;7.30;99.90;;;;;;5008701;28;20069;-70
2022/12/20 07:52:13;;;;;;;21.17;12.02;;;7.30;99.90;;;;;;5009973;28;20457;-69
2022/12/20 07:54:48;;;;;;;22.23;13.18;;;7.30;99.90;;;;;;5011008;28;20033;-69
2022/12/20 07:57:23;;;;;;;21.60;13.07;;;7.30;99.90;;;;;;5009535;28;20045;-69
2022/12/20 07:59:53;;;;;;;21.33;12.38;;;7.30;99.90;;;;;;5004771;28;20026;-69
2022/12/20 08:02:25;;;;;;;20.10;12.30;;;7.30;99.90;;;;;;5007051;28;20065;-69
2022/12/20 08:04:52;;;;;;;22.25;12.20;;;7.30;99.90;;;;;;5004365;28;20084;-69
2022/12/20 08:07:18;;;;;;;20.98;13.10;;;7.30;99.90;;;;;;5009637;28;20045;-69
2022/12/20 08:09:45;;;;;;;22.40;12.70;;;7.20;99.90;;;;;;5011300;28;20042;-70
2022/12/20 08:12:14;;;;;;;23.33;12.60;;;7.20;99.90;;;;;;5012300;28;20034;-69
2022/12/20 08:14:40;;;;;;;22.65;12.45;;;7.20;99.90;;;;;;5008635;28;20037;-69
2022/12/20 08:17:05;;;;;;;21.77;12.65;;;7.30;99.90;;;;;;5011031;28;20038;-69
2022/12/20 08:19:31;;;;;;;18.63;11.70;;;7.30;99.90;;;;;;5013211;28;20116;-69
2022/12/20 08:21:56;;;;;;;22.33;12.23;;;7.30;99.90;;;;;;5014585;28;20038;-69
2022/12/20 08:24:22;;;;;;;18.08;12.18;;;7.30;99.80;;;;;;5009914;28;20128;-69
2022/12/20 08:26:47;;;;;;;21.77;12.82;;;7.30;99.80;;;;;;5023846;28;20408;-69
2022/12/20 08:29:13;;;;;;;21.23;12.00;;;7.40;99.60;;;;;;5010480;28;20488;-69
2022/12/20 08:31:41;;;;;;;22.08;12.50;;;7.50;99.40;;;;;;5010403;28;20042;-69
2022/12/20 08:34:06;;;;;;;23.15;12.88;;;7.50;99.30;;;;;;5009044;28;20033;-69
2022/12/20 08:36:32;;;;;;;24.35;12.35;;;7.50;99.20;;;;;;5009521;28;20030;-69
2022/12/20 08:39:00;;;;;;;25.40;11.38;;;7.50;99.10;;;;;;5024260;28;20033;-69
2022/12/20 08:41:26;;;;;;;21.10;12.05;;;7.50;99.20;;;;;;5010513;28;20033;-69
2022/12/20 08:43:51;;;;;;;19.15;11.68;;;7.50;99.20;;;;;;5008336;28;20050;-69
2022/12/20 08:46:17;;;;;;;20.05;11.55;;;7.50;99.20;;;;;;5009540;28;20034;-70
2022/12/20 08:48:42;;;;;;;18.45;11.90;;;7.50;99.00;;;;;;5008529;28;20053;-69
2022/12/20 08:51:10;;;;;;;17.70;12.25;;;7.60;98.90;;;;;;5009218;28;20030;-69
2022/12/20 08:53:36;;;;;;;21.38;12.60;;;7.60;98.80;;;;;;5007710;28;20040;-69
2022/12/20 08:56:07;;;;;;;20.85;11.93;;;7.60;98.70;;;;;;5016433;28;20102;-69
2022/12/20 08:58:34;;;;;;;20.00;11.65;;;7.70;98.60;;;;;;5011115;28;20030;-70
2022/12/20 09:01:00;;;;;;;17.45;11.35;;;7.70;98.50;;;;;;5008842;28;20087;-69
2022/12/20 09:03:29;;;;;;;20.50;11.57;;;7.70;98.50;;;;;;5009410;28;20080;-69
2022/12/20 09:05:54;;;;;;;16.17;10.68;;;7.80;98.50;;;;;;5017527;28;20361;-69
2022/12/20 09:08:20;;;;;;;19.17;11.05;;;7.80;98.40;;;;;;5012031;28;20026;-69
2022/12/20 09:10:45;;;;;;;18.30;10.40;;;7.90;98.30;;;;;;5011847;28;20022;-70
2022/12/20 09:13:11;;;;;;;16.90;10.63;;;7.90;98.00;;;;;;5015685;28;20116;-69
2022/12/20 09:15:36;;;;;;;14.88;10.27;;;8.00;97.80;;;;;;5012620;28;20731;-69
2022/12/20 09:18:03;;;;;;;17.40;10.45;;;8.00;97.70;;;;;;5013675;28;20331;-69
2022/12/20 09:20:28;;;;;;;17.58;10.63;;;8.00;97.60;;;;;;5011730;28;20026;-69
2022/12/20 09:22:54;;;;;;;16.33;9.55;;;8.00;97.60;;;;;;5016026;28;20041;-69
2022/12/20 09:25:19;;;;;;;17.25;10.25;;;8.00;97.70;;;;;;5025755;28;20112;-69
2022/12/20 09:27:45;;;;;;;13.15;9.43;;;8.00;97.70;;;;;;5014306;28;20485;-70
2022/12/20 09:30:11;;;;;;;13.85;9.43;;;8.10;97.70;;;;;;5012407;28;20091;-69
2022/12/20 09:32:36;;;;;;;14.93;9.35;;;8.20;97.10;;;;;;5011455;28;20458;-69
2022/12/20 09:35:03;;;;;;;16.83;8.85;;;8.20;97.20;;;;;;5024431;28;20063;-73
2022/12/20 09:37:30;;;;;;;15.32;8.68;;;8.30;97.10;;;;;;5028993;28;20025;-69
2022/12/20 09:39:56;;;;;;;14.85;8.60;;;8.30;97.10;;;;;;5012042;28;20498;-70
2022/12/20 09:42:25;;;;;;;14.55;9.13;;;8.30;96.90;;;;;;5024188;28;20081;-70
2022/12/20 09:44:50;;;;;;;12.70;8.43;;;8.40;96.80;;;;;;5014052;28;20037;-69
2022/12/20 09:47:23;;;;;;;13.88;8.80;;;8.40;96.70;;;;;;5013893;28;20026;-69
2022/12/20 09:49:52;;;;;;;13.63;7.95;;;8.40;96.90;;;;;;5016227;28;20116;-69
2022/12/20 09:52:46;;;;;;;14.48;9.07;;;8.40;97.00;;;;;;5003120;28;20031;-69
2022/12/20 09:55:33;;;;;;;13.63;8.23;;;8.40;96.90;;;;;;5004158;28;20033;-69
2022/12/20 09:58:14;;;;;;;14.50;8.18;;;8.40;96.80;;;;;;5024599;28;20044;-70
2022/12/20 10:00:44;;;;;;;13.68;7.93;;;8.50;96.70;;;;;;5008039;28;20030;-69
2022/12/20 10:03:21;;;;;;;13.98;8.38;;;8.50;96.40;;;;;;5014849;28;20062;-69
2022/12/20 10:05:53;;;;;;;14.07;8.07;;;8.50;96.60;;;;;;5010111;28;20386;-69
2022/12/20 10:08:53;;;;;;;14.73;8.48;;;8.50;96.60;;;;;;5013892;28;20037;-69
2022/12/20 10:11:27;;;;;;;12.40;8.17;;;8.50;96.70;;;;;;5015211;28;20037;-70
2022/12/20 10:14:19;;;;;;;11.90;7.88;;;8.50;96.50;;;;;;5011294;28;20526;-69
2022/12/20 10:16:49;;;;;;;13.15;8.30;;;8.50;96.60;;;;;;5011890;28;20077;-69
2022/12/20 10:19:37;;;;;;;14.23;7.55;;;8.50;96.60;;;;;;5007987;28;20029;-70
2022/12/20 10:22:17;;;;;;;14.30;8.07;;;8.60;96.50;;;;;;5014584;28;20037;-69
2022/12/20 10:25:06;;;;;;;12.88;7.82;;;8.70;96.50;;;;;;5005286;28;20411;-69
2022/12/20 10:27:36;;;;;;;12.18;7.18;;;8.90;95.60;;;;;;4988633;28;20056;-69
2022/12/20 10:30:14;;;;;;;11.82;7.07;;;8.90;95.50;;;;;;5012950;28;20034;-69
2022/12/20 10:32:44;;;;;;;12.10;7.65;;;9.00;95.30;;;;;;5010549;28;20647;-70
2022/12/20 10:35:10;;;;;;;12.67;7.20;;;9.00;95.10;;;;;;5010535;28;20061;-69
2022/12/20 10:37:35;;;;;;;10.32;6.53;;;8.90;95.10;;;;;;5012520;28;20061;-69
2022/12/20 10:40:01;;;;;;;12.25;7.45;;;9.00;95.00;;;;;;5012423;28;20026;-69
2022/12/20 10:42:39;;;;;;;13.35;6.60;;;9.00;95.00;;;;;;5011936;28;20046;-70
2022/12/20 10:45:50;;;;;;;13.93;6.65;;;8.90;95.20;;;;;;5011832;28;20026;-69
2022/12/20 10:48:42;;;;;;;;;;;8.90;95.10;;;;;;5018641;28;20462;-69
2022/12/20 10:51:14;;;;;;;15.02;6.97;;;9.00;94.50;;;;;;4998277;28;19905;-69
2022/12/20 10:53:55;;;;;;;13.20;7.70;;;8.90;94.90;;;;;;5015621;28;20490;-70
2022/12/20 10:56:26;;;;;;;10.15;6.68;;;8.90;94.60;;;;;;5023244;28;20474;-69
2022/12/20 10:59:01;;;;;;;12.15;7.25;;;8.80;94.80;;;;;;5010865;28;20352;-69
2022/12/20 11:01:35;;;;;;;12.23;7.10;;;8.80;94.70;;;;;;5012658;28;20084;-69
2022/12/20 11:04:25;;;;;;;12.32;6.80;;;8.80;94.60;;;;;;5010505;28;20030;-70
2022/12/20 11:06:51;;;;;;;12.52;7.25;;;9.00;94.50;;;;;;5011182;28;20092;-70
2022/12/20 11:09:30;;;;;;;11.80;7.05;;;9.00;94.40;;;;;;5010439;28;20437;-69
2022/12/20 11:12:15;;;;;;;13.32;7.28;;;9.00;94.40;;;;;;5009077;28;20109;-70
2022/12/20 11:14:43;;;;;;;9.52;6.30;;;9.00;94.30;;;;;;5012605;28;20030;-70
2022/12/20 11:17:32;;;;;;;17.15;6.60;;;9.20;93.70;;;;;;4999989;28;20030;-69
2022/12/20 11:19:57;;;;;;;12.52;6.53;;;9.30;93.40;;;;;;5009957;28;20028;-69
2022/12/20 11:22:31;;;;;;;10.40;6.50;;;9.30;93.20;;;;;;5009626;28;20037;-70
2022/12/20 11:25:21;;;;;;;8.82;5.38;;;9.30;93.20;;;;;;5011033;28;20054;-70
2022/12/20 11:28:07;;;;;;;9.77;5.97;;;9.40;92.70;;;;;;5011054;28;20387;-70
2022/12/20 11:30:48;;;;;;;10.38;6.10;;;9.40;92.80;;;;;;5020462;28;20029;-69
2022/12/20 11:33:41;;;;;;;11.07;5.97;;;9.50;92.70;;;;;;5011270;28;20034;-70
2022/12/20 11:36:33;;;;;;;13.07;5.97;;;9.50;92.50;;;;;;5009104;28;20022;-69
2022/12/20 11:39:21;;;;;;;10.95;6.32;;;9.50;92.30;;;;;;5024336;28;20466;-69
2022/12/20 11:42:03;;;;;;;9.38;5.68;;;9.50;92.50;;;;;;5009504;28;20037;-69
2022/12/20 11:44:32;;;;;;;8.27;5.68;;;9.50;91.90;;;;;;5003655;28;20030;-69
2022/12/20 11:47:16;;;;;;;10.18;5.68;;;9.60;91.70;;;;;;5009164;28;20196;-69
2022/12/20 11:50:02;;;;;;;11.10;5.63;;;9.50;92.20;;;;;;5003390;28;20034;-69
2022/12/20 11:52:35;;;;;;;9.43;5.72;;;9.50;92.00;;;;;;5003271;28;20109;-70
2022/12/20 11:55:23;;;;;;;10.50;5.97;;;9.50;91.60;;;;;;5009903;28;20026;-70
2022/12/20 11:58:30;;;;;;;10.98;5.35;;;9.60;91.50;;;;;;5010729;28;20108;-71
2022/12/20 12:01:02;;;;;;;9.77;5.45;;;9.50;91.90;;;;;;4988821;28;20041;-69
2022/12/20 12:03:34;;;;;;;11.05;6.13;;;9.50;92.50;;;;;;4988792;28;20466;-69
2022/12/20 12:06:16;;;;;;;10.32;6.00;;;9.40;92.80;;;;;;4999529;28;20038;-69
2022/12/20 12:09:08;;;;;;;12.20;6.32;;;9.30;93.50;;;;;;5011554;28;20099;-69
2022/12/20 12:11:36;;;;;;;;;;;9.10;93.90;;;;;;5007806;28;20073;-69
2022/12/20 12:14:03;;;;;;;10.48;6.25;;;9.10;93.80;;;;;;5009499;28;20004;-69
2022/12/20 12:16:33;;;;;;;12.25;6.72;;;9.10;94.00;;;;;;5023636;28;20034;-69
2022/12/20 12:19:00;;;;;;;11.73;6.53;;;9.10;94.40;;;;;;5011368;28;20501;-69
2022/12/20 12:21:32;;;;;;;13.55;6.93;;;9.00;94.70;;;;;;5009628;28;20466;-69
2022/12/20 12:24:18;;;;;;;12.00;6.25;;;8.90;95.20;;;;;;5010068;28;20045;-69
2022/12/20 12:26:44;;;;;;;11.10;6.53;;;8.80;95.30;;;;;;5006135;28;20038;-69
2022/12/20 12:29:14;;;;;;;10.90;6.88;;;8.80;95.80;;;;;;5012302;28;20092;-69
2022/12/20 12:31:52;;;;;;;10.27;6.32;;;8.70;95.90;;;;;;5008368;28;20029;-69
2022/12/20 12:34:46;;;;;;;14.73;7.85;;;8.80;96.00;;;;;;5009596;28;20037;-69
2022/12/20 12:37:50;;;;;;;12.73;7.00;;;8.80;96.20;;;;;;5003977;28;20048;-69
2022/12/20 12:40:38;;;;;;;11.65;7.45;;;8.80;96.00;;;;;;5009996;28;20030;-69
2022/12/20 12:43:48;;;;;;;11.90;6.80;;;8.90;95.90;;;;;;5011500;28;20630;-72
2022/12/20 12:46:33;;;;;;;11.30;6.70;;;8.80;96.00;;;;;;4984459;28;20046;-68
2022/12/20 12:49:05;;;;;;;11.13;6.85;;;8.90;96.20;;;;;;5014033;28;20041;-69
2022/12/20 12:51:40;;;;;;;11.70;7.13;;;8.80;96.40;;;;;;5013332;28;20014;-69
2022/12/20 12:54:08;;;;;;;17.52;7.25;;;8.80;96.50;;;;;;5008228;28;20025;-69
2022/12/20 12:56:41;;;;;;;11.70;6.68;;;8.80;96.70;;;;;;5016945;28;20105;-70
2022/12/20 12:59:06;;;;;;;13.20;6.88;;;8.90;96.50;;;;;;5012418;28;20478;-68
2022/12/20 13:02:15;;;;;;;13.35;7.50;;;8.80;96.70;;;;;;5014416;28;20021;-69
2022/12/20 13:05:00;;;;;;;11.27;7.20;;;8.80;96.80;;;;;;5017752;28;20101;-68
2022/12/20 13:07:25;;;;;;;12.52;7.40;;;8.70;97.10;;;;;;5007651;28;20053;-69
2022/12/20 13:09:51;;;;;;;12.30;7.25;;;8.70;97.20;;;;;;5014893;28;20034;-69